Gibson, Georgia
Current Conditions -  °F | °C
As of 3:35 PM on Saturday 20 Dec 2014 (Local Time) from KHQU Reporting Station
Overcast Overcast  
Wind Chill: 52°   Ceiling: 400
Heat Index: 52°   Visibility: 1.5mi
Dew Point: 52°   Wind: 5mph
Humidity: 100%   Direction: 40°NE
Pressure: 30.2"   Gusts: NA
Location:  33.23°N, 82.6°W
Report Text: KHQU 202035Z AUTO 04004KT 1 1/2SM OVC004 11/11 A3020 RMK AO1 T01110111
Loading
Personal Weather Stations






























Interactive Weather Map New forecast layout! Learn more

10-Day Weather Forecast

Advertisements
Track Severe Weather on mobile